Time;durP1;ratioP1;P1;durP2;ratioP2;P2;SDS_P1;SDS_P2;PMS_P1;PMS_P2;Temp;Humidity;BMP_temperature;BMP_pressure;BME280_temperature;BME280_humidity;BME280_pressure;Samples;Min_cycle;Max_cycle;Signal;HPM_P1;HPM_P2
2022/08/08 00:02:18;;;;;;;3.90;3.43;;;12.70;94.40;;;;;;4181499;28;20207;-73
2022/08/08 00:05:04;;;;;;;5.03;4.53;;;12.60;94.70;;;;;;4183948;28;20745;-72
2022/08/08 00:07:32;;;;;;;3.97;3.37;;;12.60;94.70;;;;;;4186541;28;20200;-72
2022/08/08 00:09:54;;;;;;;5.47;4.97;;;12.60;95.10;;;;;;4183814;28;20239;-72
2022/08/08 00:12:01;;;;;;;4.27;3.53;;;12.50;95.90;;;;;;4180079;28;20329;-73
2022/08/08 00:14:13;;;;;;;4.33;3.93;;;12.60;96.00;;;;;;4180756;28;20242;-72
2022/08/08 00:16:28;;;;;;;4.43;4.03;;;12.60;95.50;;;;;;4180715;28;20212;-74
2022/08/08 00:19:00;;;;;;;6.03;5.30;;;12.50;95.70;;;;;;4181863;28;20172;-73
2022/08/08 00:21:02;;;;;;;4.30;3.90;;;12.40;96.40;;;;;;4181774;28;20553;-73
2022/08/08 00:23:17;;;;;;;4.93;4.53;;;12.40;96.40;;;;;;4182081;28;20180;-73
2022/08/08 00:25:30;;;;;;;4.50;4.10;;;12.30;96.50;;;;;;4182178;28;20260;-73
2022/08/08 00:27:32;;;;;;;4.13;3.83;;;12.30;96.50;;;;;;4180878;28;20190;-73
2022/08/08 00:29:55;;;;;;;4.50;4.10;;;12.30;95.90;;;;;;4182381;28;20183;-74
2022/08/08 00:32:09;;;;;;;3.70;3.40;;;12.30;95.90;;;;;;4182321;28;20204;-73
2022/08/08 00:36:54;;;;;;;3.43;3.13;;;12.30;96.30;;;;;;4182063;28;20258;-74
2022/08/08 00:39:12;;;;;;;4.50;4.10;;;12.20;96.40;;;;;;4180725;28;20187;-72
2022/08/08 00:41:15;;;;;;;4.07;3.67;;;12.20;96.80;;;;;;4181153;28;20202;-73
2022/08/08 00:43:47;;;;;;;4.30;3.90;;;12.20;97.20;;;;;;4182488;28;20168;-73
2022/08/08 00:46:05;;;;;;;4.13;3.73;;;12.20;97.00;;;;;;4182125;28;20177;-73
2022/08/08 00:48:43;;;;;;;4.20;3.80;;;12.10;97.10;;;;;;4181566;28;20181;-73
2022/08/08 00:50:57;;;;;;;4.10;3.67;;;12.10;97.00;;;;;;4180094;28;20191;-73
2022/08/08 00:52:57;;;;;;;4.60;4.20;;;12.10;97.10;;;;;;4180238;28;20684;-74
2022/08/08 00:55:35;;;;;;;5.07;4.33;;;12.00;97.50;;;;;;4179158;28;20388;-73
2022/08/08 00:58:01;;;;;;;4.13;3.70;;;12.00;97.50;;;;;;4181826;28;20661;-73
2022/08/08 01:00:06;;;;;;;3.60;3.30;;;12.00;97.40;;;;;;4181618;28;20184;-73
2022/08/08 01:02:54;;;;;;;5.33;4.83;;;12.00;97.20;;;;;;4179600;28;20222;-74
2022/08/08 01:05:07;;;;;;;3.83;3.50;;;11.90;97.20;;;;;;4164152;28;20189;-74
2022/08/08 01:07:29;;;;;;;5.57;3.67;;;11.90;97.60;;;;;;4181648;28;20165;-74
2022/08/08 01:09:58;;;;;;;4.00;3.50;;;11.80;98.00;;;;;;4180338;28;20188;-73
2022/08/08 01:12:35;;;;;;;4.17;3.67;;;11.80;97.90;;;;;;4169956;28;20247;-74
2022/08/08 01:14:54;;;;;;;4.00;3.60;;;11.80;97.40;;;;;;4181694;28;20263;-74
2022/08/08 01:17:00;;;;;;;3.20;2.90;;;11.70;96.80;;;;;;4181586;28;20208;-74
2022/08/08 01:19:27;;;;;;;3.53;3.23;;;11.60;97.30;;;;;;4181491;28;20725;-74
2022/08/08 01:21:56;;;;;;;3.87;3.53;;;11.60;97.50;;;;;;4180534;28;20578;-74
2022/08/08 01:24:26;;;;;;;3.50;3.13;;;11.50;97.40;;;;;;4164763;28;20200;-74
2022/08/08 01:26:37;;;;;;;3.60;3.30;;;11.50;97.50;;;;;;4180167;28;20200;-74
2022/08/08 01:29:12;;;;;;;3.93;3.63;;;11.50;97.60;;;;;;4181555;28;20180;-74
2022/08/08 01:31:52;;;;;;;3.47;3.10;;;11.60;98.20;;;;;;4180649;28;20203;-74
2022/08/08 01:34:18;;;;;;;2.80;2.60;;;11.50;97.90;;;;;;4181791;28;20278;-74
2022/08/08 01:36:40;;;;;;;3.10;2.80;;;11.50;97.70;;;;;;4180678;28;20610;-74
2022/08/08 01:39:15;;;;;;;3.10;2.80;;;11.40;97.60;;;;;;4180430;28;20195;-73
2022/08/08 01:41:30;;;;;;;3.23;2.93;;;11.40;97.30;;;;;;4181178;28;20211;-74
2022/08/08 01:43:48;;;;;;;3.13;2.83;;;11.40;97.20;;;;;;4181374;28;20246;-74
2022/08/08 01:46:01;;;;;;;3.50;3.17;;;11.50;96.90;;;;;;4181035;28;20184;-73
2022/08/08 01:48:20;;;;;;;3.53;3.23;;;11.40;96.40;;;;;;4181418;28;20242;-73
2022/08/08 01:50:40;;;;;;;2.97;2.67;;;11.40;96.40;;;;;;4179490;28;20176;-74
2022/08/08 01:52:45;;;;;;;2.50;2.30;;;11.30;96.60;;;;;;4180422;28;20263;-74
2022/08/08 01:55:07;;;;;;;3.30;2.80;;;11.30;96.80;;;;;;4181984;28;20683;-74
2022/08/08 01:57:27;;;;;;;3.13;2.83;;;11.30;96.60;;;;;;4181893;28;20262;-74
2022/08/08 01:59:37;;;;;;;2.83;2.63;;;11.30;96.30;;;;;;4181987;28;20225;-74
2022/08/08 02:01:56;;;;;;;2.97;2.47;;;11.20;96.60;;;;;;4181365;28;20202;-74
2022/08/08 02:04:05;;;;;;;3.27;2.97;;;11.20;96.20;;;;;;4180468;28;20624;-75
2022/08/08 02:06:30;;;;;;;3.03;2.73;;;11.20;96.10;;;;;;4181558;28;20180;-75
2022/08/08 02:08:58;;;;;;;2.97;2.67;;;11.20;96.20;;;;;;4181567;28;20183;-75
2022/08/08 02:11:26;;;;;;;3.30;2.67;;;11.20;95.80;;;;;;4180758;28;20172;-75
2022/08/08 02:13:57;;;;;;;2.70;2.50;;;11.20;95.60;;;;;;4181334;28;20192;-75
2022/08/08 02:16:05;;;;;;;2.47;2.27;;;11.10;95.50;;;;;;4163594;28;20224;-75
2022/08/08 02:18:12;;;;;;;2.30;2.10;;;11.10;95.20;;;;;;4174980;28;20656;-74
2022/08/08 02:23:19;;;;;;;2.40;2.20;;;11.10;94.70;;;;;;4181204;28;20167;-74
2022/08/08 02:25:38;;;;;;;2.90;2.20;;;11.00;94.60;;;;;;4180715;28;20559;-74
2022/08/08 02:28:04;;;;;;;2.13;2.00;;;11.00;94.30;;;;;;4180473;28;20203;-74
2022/08/08 02:30:11;;;;;;;2.10;1.90;;;11.00;93.70;;;;;;4181143;28;20203;-73
2022/08/08 02:32:31;;;;;;;2.40;2.20;;;11.00;93.30;;;;;;4181346;28;20204;-75
2022/08/08 02:34:43;;;;;;;1.87;1.77;;;11.00;92.80;;;;;;4179971;28;20195;-74
2022/08/08 02:37:20;;;;;;;2.63;1.90;;;11.00;92.50;;;;;;4193184;28;20215;-75
2022/08/08 02:40:01;;;;;;;2.30;2.10;;;10.90;92.30;;;;;;4179405;28;20222;-74
2022/08/08 02:42:06;;;;;;;1.80;1.70;;;10.90;92.00;;;;;;4180667;28;20208;-75
2022/08/08 02:44:25;;;;;;;2.40;2.20;;;10.90;92.40;;;;;;4180799;28;20172;-74
2022/08/08 02:46:37;;;;;;;2.77;2.13;;;10.80;92.60;;;;;;4171949;28;20559;-74
2022/08/08 02:49:15;;;;;;;2.00;1.90;;;10.70;93.10;;;;;;4164288;28;20181;-76
2022/08/08 02:51:33;;;;;;;2.87;2.00;;;10.70;93.80;;;;;;4163494;28;20246;-74
2022/08/08 02:53:52;;;;;;;2.10;1.90;;;10.60;93.10;;;;;;4164313;28;20561;-75
2022/08/08 02:56:25;;;;;;;2.03;1.93;;;10.60;92.90;;;;;;4179401;28;20253;-75
2022/08/08 02:58:49;;;;;;;2.10;2.00;;;10.60;92.60;;;;;;4180796;28;20223;-75
2022/08/08 03:01:03;;;;;;;2.30;2.07;;;10.60;92.30;;;;;;4179043;28;20433;-75
2022/08/08 03:03:06;;;;;;;2.07;1.90;;;10.50;92.90;;;;;;4180816;28;20176;-75
2022/08/08 03:05:18;;;;;;;2.90;2.07;;;10.50;92.90;;;;;;4181245;28;20179;-75
2022/08/08 03:07:51;;;;;;;2.87;2.00;;;10.40;93.00;;;;;;4180951;28;20183;-75
2022/08/08 03:10:36;;;;;;;2.13;1.97;;;10.40;93.00;;;;;;4181106;28;20199;-75
2022/08/08 03:13:23;;;;;;;2.73;2.10;;;10.40;92.90;;;;;;4181206;28;20226;-75
2022/08/08 03:15:45;;;;;;;2.23;1.50;;;10.30;92.70;;;;;;4181053;28;20510;-75
2022/08/08 03:18:15;;;;;;;1.90;1.80;;;10.20;93.00;;;;;;4180592;28;20220;-75
2022/08/08 03:20:16;;;;;;;1.73;1.63;;;10.20;93.00;;;;;;4179265;28;20186;-75
2022/08/08 03:22:16;;;;;;;2.67;2.30;;;10.20;93.20;;;;;;4180724;28;20191;-74
2022/08/08 03:24:18;;;;;;;2.00;1.80;;;10.20;92.70;;;;;;4179557;28;20187;-75
2022/08/08 03:26:29;;;;;;;3.13;1.70;;;10.20;92.30;;;;;;4181027;28;20270;-75
2022/08/08 03:28:41;;;;;;;1.83;1.70;;;10.20;91.40;;;;;;4184402;28;20605;-75
2022/08/08 03:30:44;;;;;;;3.27;1.60;;;10.20;91.40;;;;;;4186244;28;20213;-75
2022/08/08 03:35:05;;;;;;;2.00;1.70;;;10.20;91.60;;;;;;4186807;28;20189;-74
2022/08/08 03:37:10;;;;;;;2.13;1.70;;;10.10;91.80;;;;;;4186483;28;20182;-74
2022/08/08 03:39:12;;;;;;;2.10;1.90;;;10.10;91.80;;;;;;4186228;28;20205;-76
2022/08/08 03:41:13;;;;;;;2.13;1.60;;;10.00;91.40;;;;;;4185295;28;20184;-74
2022/08/08 03:43:13;;;;;;;1.73;1.50;;;10.00;91.30;;;;;;4186668;28;20482;-75
2022/08/08 03:45:22;;;;;;;2.23;2.03;;;9.90;91.40;;;;;;4186454;28;20194;-75
2022/08/08 03:47:23;;;;;;;1.70;1.60;;;9.90;91.40;;;;;;4186544;28;20187;-75
2022/08/08 03:49:28;;;;;;;2.03;1.83;;;9.90;91.50;;;;;;4186130;28;20193;-76
2022/08/08 03:51:29;;;;;;;2.00;1.77;;;9.90;91.50;;;;;;4185122;28;20207;-76
2022/08/08 03:53:36;;;;;;;2.43;1.87;;;10.00;91.40;;;;;;4186579;28;20270;-76
2022/08/08 03:55:48;;;;;;;2.30;1.60;;;9.90;91.20;;;;;;4186612;28;20199;-75
2022/08/08 03:57:53;;;;;;;1.80;1.70;;;9.90;91.10;;;;;;4186931;28;20178;-74
2022/08/08 03:59:53;;;;;;;1.87;1.67;;;9.90;90.80;;;;;;4186236;28;20486;-76
2022/08/08 04:01:54;;;;;;;1.80;1.70;;;10.00;90.80;;;;;;4185548;28;20719;-76
2022/08/08 04:03:54;;;;;;;1.83;1.67;;;10.00;90.90;;;;;;4185148;28;20191;-76
2022/08/08 04:05:55;;;;;;;1.70;1.60;;;9.90;91.00;;;;;;4186556;28;20176;-75
2022/08/08 04:07:57;;;;;;;1.70;1.60;;;10.00;90.80;;;;;;4186476;28;20187;-75
2022/08/08 04:09:58;;;;;;;1.90;1.80;;;9.90;90.70;;;;;;4186508;28;20756;-76
2022/08/08 04:12:01;;;;;;;1.90;1.70;;;9.90;90.90;;;;;;4185734;28;20204;-75
2022/08/08 04:14:02;;;;;;;1.73;1.63;;;9.90;90.90;;;;;;4184668;28;20194;-76
2022/08/08 04:16:03;;;;;;;1.97;1.87;;;9.90;91.10;;;;;;4186661;28;20203;-75
2022/08/08 04:18:03;;;;;;;1.93;1.80;;;9.80;91.10;;;;;;4186473;28;20184;-75
2022/08/08 04:20:05;;;;;;;3.47;1.90;;;9.80;91.20;;;;;;4184037;28;20229;-75
2022/08/08 04:22:06;;;;;;;1.77;1.67;;;9.80;91.00;;;;;;4183380;28;20822;-76
2022/08/08 04:24:06;;;;;;;1.73;1.63;;;9.80;91.00;;;;;;4183572;28;20184;-76
2022/08/08 04:26:07;;;;;;;1.30;1.20;;;9.80;90.90;;;;;;4183855;28;20186;-76
2022/08/08 04:28:08;;;;;;;2.57;1.50;;;9.80;90.80;;;;;;4183861;28;20252;-75
2022/08/08 04:30:09;;;;;;;1.70;1.60;;;9.70;90.90;;;;;;4181590;28;20207;-75
2022/08/08 04:32:13;;;;;;;3.03;1.83;;;9.80;90.80;;;;;;4178274;28;20207;-75
2022/08/08 04:34:13;;;;;;;2.37;1.80;;;9.90;90.70;;;;;;4183860;28;20194;-76
2022/08/08 04:36:14;;;;;;;2.43;1.87;;;9.90;90.80;;;;;;4183975;28;20217;-76
2022/08/08 04:38:14;;;;;;;1.47;1.37;;;9.90;89.70;;;;;;4183966;28;20172;-75
2022/08/08 04:40:15;;;;;;;1.77;1.67;;;9.90;90.00;;;;;;4178670;28;20184;-75
2022/08/08 04:42:15;;;;;;;2.07;1.90;;;9.90;90.40;;;;;;4180977;28;20693;-76
2022/08/08 04:44:16;;;;;;;5.00;1.53;;;9.90;90.50;;;;;;4181153;28;20176;-76
2022/08/08 04:46:17;;;;;;;1.90;1.70;;;10.00;90.30;;;;;;4181212;28;20184;-75
2022/08/08 04:48:17;;;;;;;1.90;1.50;;;10.00;90.00;;;;;;4179512;28;20250;-76
2022/08/08 04:50:18;;;;;;;1.60;1.50;;;10.10;89.50;;;;;;4179184;28;20765;-76
2022/08/08 04:52:19;;;;;;;2.27;1.53;;;10.10;88.90;;;;;;4180706;28;20210;-76
2022/08/08 04:54:19;;;;;;;1.50;1.40;;;10.20;89.00;;;;;;4181530;28;20256;-76
2022/08/08 04:56:20;;;;;;;1.70;1.60;;;10.20;88.70;;;;;;4180876;28;20278;-76
2022/08/08 04:58:20;;;;;;;1.90;1.60;;;10.20;89.30;;;;;;4181110;28;20183;-75
2022/08/08 05:00:23;;;;;;;1.90;1.73;;;10.20;89.30;;;;;;4180179;28;20183;-76
2022/08/08 05:02:24;;;;;;;1.80;1.70;;;10.20;89.40;;;;;;4181017;28;20207;-78
2022/08/08 05:04:25;;;;;;;3.13;1.77;;;10.20;89.30;;;;;;4180739;28;20187;-75
2022/08/08 05:06:25;;;;;;;1.60;1.43;;;10.30;88.80;;;;;;4180644;28;20206;-75
2022/08/08 05:08:26;;;;;;;1.30;1.20;;;10.30;88.50;;;;;;4180824;28;20690;-76
2022/08/08 05:10:28;;;;;;;1.63;1.53;;;10.30;88.20;;;;;;4178725;28;20214;-75
2022/08/08 05:12:29;;;;;;;1.53;1.43;;;10.30;88.10;;;;;;4180892;28;20207;-75
2022/08/08 05:14:29;;;;;;;1.70;1.60;;;10.30;88.60;;;;;;4180686;28;20835;-76
2022/08/08 05:16:30;;;;;;;1.57;1.47;;;10.30;88.60;;;;;;4180479;28;20677;-76
2022/08/08 05:18:32;;;;;;;1.57;1.47;;;10.40;88.20;;;;;;4180556;28;20255;-75
2022/08/08 05:20:32;;;;;;;1.63;1.53;;;10.40;87.90;;;;;;4179975;28;20191;-75
2022/08/08 05:22:34;;;;;;;1.63;1.53;;;10.40;88.50;;;;;;4179112;28;20208;-76
2022/08/08 05:24:36;;;;;;;1.70;1.60;;;10.50;88.20;;;;;;4179173;28;20192;-76
2022/08/08 05:26:40;;;;;;;1.60;1.50;;;10.50;87.10;;;;;;4180707;28;20187;-76
2022/08/08 05:28:41;;;;;;;1.60;1.50;;;10.60;87.60;;;;;;4180503;28;20191;-76
2022/08/08 05:30:42;;;;;;;2.60;1.90;;;10.60;88.30;;;;;;4179547;28;20191;-76
2022/08/08 05:32:43;;;;;;;1.73;1.63;;;10.70;87.90;;;;;;4180369;28;20214;-75
2022/08/08 05:34:49;;;;;;;2.03;1.60;;;10.80;87.90;;;;;;4180377;28;20198;-76
2022/08/08 05:36:52;;;;;;;1.90;1.80;;;10.90;87.00;;;;;;4180063;28;20211;-76
2022/08/08 05:38:55;;;;;;;2.10;1.73;;;11.00;86.70;;;;;;4179962;28;20179;-76
2022/08/08 05:41:01;;;;;;;1.70;1.60;;;11.00;86.40;;;;;;4179380;28;20180;-76
2022/08/08 05:43:07;;;;;;;1.80;1.53;;;11.10;86.20;;;;;;4179984;28;20218;-76
2022/08/08 05:45:11;;;;;;;1.50;1.40;;;11.10;85.80;;;;;;4179902;28;20180;-76
2022/08/08 05:47:12;;;;;;;2.60;1.97;;;11.20;86.20;;;;;;4178741;28;20176;-76
2022/08/08 05:49:15;;;;;;;1.63;1.53;;;11.10;86.60;;;;;;4178760;28;20190;-76
2022/08/08 05:51:16;;;;;;;2.20;1.73;;;11.20;86.60;;;;;;4178254;28;20187;-76
2022/08/08 05:53:24;;;;;;;1.93;1.73;;;11.30;86.10;;;;;;4180552;28;20204;-75
2022/08/08 05:55:25;;;;;;;1.97;1.73;;;11.40;85.30;;;;;;4179823;28;20156;-76
2022/08/08 05:57:28;;;;;;;3.00;1.60;;;11.50;84.60;;;;;;4179868;28;20219;-75
2022/08/08 05:59:30;;;;;;;1.67;1.57;;;11.50;84.70;;;;;;4179795;28;20181;-76
2022/08/08 06:01:32;;;;;;;2.47;1.53;;;11.60;84.10;;;;;;4179178;28;20196;-75
2022/08/08 06:03:34;;;;;;;2.47;1.67;;;11.60;84.00;;;;;;4179687;28;20263;-76
2022/08/08 06:05:43;;;;;;;1.50;1.40;;;11.70;83.80;;;;;;4179746;28;20176;-76
2022/08/08 06:07:46;;;;;;;1.50;1.37;;;11.80;83.40;;;;;;4179729;28;20172;-76
2022/08/08 06:09:47;;;;;;;2.17;1.60;;;11.80;83.10;;;;;;4178294;28;20223;-75
2022/08/08 06:11:48;;;;;;;3.20;1.50;;;11.90;83.00;;;;;;4177460;28;20219;-76
2022/08/08 06:13:50;;;;;;;1.70;1.53;;;12.00;82.80;;;;;;4179813;28;20184;-76
2022/08/08 06:15:54;;;;;;;1.63;1.50;;;12.00;82.60;;;;;;4179366;28;20607;-76
2022/08/08 06:17:56;;;;;;;1.60;1.50;;;12.10;82.10;;;;;;4161673;28;20182;-76
2022/08/08 06:19:58;;;;;;;2.13;1.90;;;12.20;82.20;;;;;;4178135;28;20184;-76
2022/08/08 06:21:58;;;;;;;1.90;1.70;;;12.30;81.80;;;;;;4177497;28;20204;-76
2022/08/08 06:24:00;;;;;;;1.60;1.50;;;12.30;81.60;;;;;;4173234;28;20644;-76
2022/08/08 06:26:01;;;;;;;1.80;1.67;;;12.50;80.90;;;;;;4176371;28;20202;-76
2022/08/08 06:28:11;;;;;;;1.60;1.47;;;12.60;80.00;;;;;;4179189;28;20656;-76
2022/08/08 06:30:13;;;;;;;2.10;1.70;;;12.70;79.30;;;;;;4178813;28;20199;-76
2022/08/08 06:32:15;;;;;;;1.57;1.43;;;12.90;78.20;;;;;;4179621;28;20585;-76
2022/08/08 06:34:17;;;;;;;2.30;1.80;;;13.00;77.90;;;;;;4180562;28;20596;-76
2022/08/08 06:36:38;;;;;;;1.80;1.70;;;13.10;77.20;;;;;;4170753;28;20242;-76
2022/08/08 06:38:44;;;;;;;1.60;1.50;;;13.30;77.30;;;;;;4169257;28;20172;-76
2022/08/08 06:40:51;;;;;;;2.23;2.03;;;13.30;77.70;;;;;;4170719;28;20219;-77
2022/08/08 06:43:06;;;;;;;1.90;1.80;;;13.50;77.70;;;;;;4171225;28;20207;-76
2022/08/08 06:45:07;;;;;;;2.60;1.97;;;13.60;77.10;;;;;;4183813;28;20176;-76
2022/08/08 06:47:08;;;;;;;3.83;2.27;;;13.70;77.60;;;;;;4175185;28;20277;-77
2022/08/08 06:49:08;;;;;;;2.37;2.17;;;13.70;78.00;;;;;;4170215;28;20181;-76
2022/08/08 06:51:10;;;;;;;2.63;2.27;;;13.80;78.80;;;;;;4170116;28;20197;-76
2022/08/08 06:53:11;;;;;;;3.40;3.10;;;13.90;79.60;;;;;;4176337;28;20277;-76
2022/08/08 06:55:12;;;;;;;3.40;3.00;;;14.10;80.20;;;;;;4166030;28;20520;-76
2022/08/08 06:57:12;;;;;;;5.17;4.73;;;14.40;81.00;;;;;;4163700;28;20184;-77
2022/08/08 06:59:13;;;;;;;3.80;2.67;;;14.60;80.10;;;;;;4162639;28;20200;-77
2022/08/08 07:01:15;;;;;;;3.13;2.73;;;14.80;79.80;;;;;;4162009;28;20928;-77
2022/08/08 07:03:30;;;;;;;4.07;2.63;;;15.00;79.30;;;;;;4162306;28;20569;-77
2022/08/08 07:05:36;;;;;;;2.80;2.60;;;15.10;78.70;;;;;;4162654;28;20247;-77
2022/08/08 07:07:52;;;;;;;6.97;6.40;;;15.30;79.10;;;;;;4162812;28;20592;-77
2022/08/08 07:10:05;;;;;;;2.93;2.67;;;15.60;79.00;;;;;;4162515;28;20185;-76
2022/08/08 07:12:07;;;;;;;30.37;28.33;;;16.00;76.50;;;;;;4162074;28;20212;-77
2022/08/08 07:14:15;;;;;;;4.47;4.20;;;16.10;75.70;;;;;;4162456;28;20192;-77
2022/08/08 07:16:26;;;;;;;19.83;17.97;;;16.40;74.30;;;;;;4162616;28;20659;-77
2022/08/08 07:19:05;;;;;;;4.00;3.70;;;16.70;72.80;;;;;;4162371;28;20692;-75
2022/08/08 07:21:07;;;;;;;4.00;3.50;;;17.10;70.30;;;;;;4162554;28;20295;-73
2022/08/08 07:23:21;;;;;;;3.40;3.10;;;17.30;69.00;;;;;;4163058;28;20208;-74
2022/08/08 07:25:24;;;;;;;3.37;2.60;;;17.60;66.70;;;;;;4162493;28;20181;-76
2022/08/08 07:27:28;;;;;;;3.10;2.90;;;17.80;66.10;;;;;;4161201;28;20276;-76
2022/08/08 07:29:29;;;;;;;3.20;2.90;;;17.90;65.20;;;;;;4162099;28;20616;-75
2022/08/08 07:31:30;;;;;;;7.77;7.37;;;17.90;66.30;;;;;;4160352;28;20247;-75
2022/08/08 07:33:31;;;;;;;3.03;2.73;;;17.80;66.50;;;;;;4161155;28;20216;-71
2022/08/08 07:35:33;;;;;;;3.53;3.23;;;18.10;64.50;;;;;;4160830;28;20209;-76
2022/08/08 07:37:35;;;;;;;6.67;6.17;;;18.20;63.40;;;;;;4161994;28;20181;-73
2022/08/08 07:39:41;;;;;;;11.87;10.90;;;18.40;63.20;;;;;;4160402;28;20271;-73
2022/08/08 07:41:44;;;;;;;7.57;6.87;;;18.20;64.60;;;;;;4159518;28;20208;-73
2022/08/08 07:43:44;;;;;;;3.97;2.57;;;18.20;63.10;;;;;;4176988;28;20188;-73
2022/08/08 07:45:45;;;;;;;4.53;2.53;;;18.40;61.80;;;;;;4161557;28;20204;-73
2022/08/08 07:47:46;;;;;;;5.83;5.47;;;18.60;61.80;;;;;;4162339;28;21040;-73
2022/08/08 07:49:47;;;;;;;4.60;4.20;;;18.70;60.80;;;;;;4161216;28;20220;-73
2022/08/08 07:51:49;;;;;;;6.50;5.80;;;19.00;59.50;;;;;;4176789;28;20212;-73
2022/08/08 07:54:23;;;;;;;4.77;3.30;;;19.10;59.40;;;;;;4177468;28;20188;-73
2022/08/08 07:56:32;;;;;;;18.07;16.57;;;19.20;58.70;;;;;;4177293;28;20212;-73
2022/08/08 07:58:42;;;;;;;3.57;3.27;;;19.40;57.30;;;;;;4160852;28;20189;-73
2022/08/08 08:00:51;;;;;;;3.77;3.47;;;19.50;57.30;;;;;;4160197;28;20181;-73
2022/08/08 08:03:12;;;;;;;7.57;7.17;;;19.50;58.20;;;;;;4160622;28;20200;-73
2022/08/08 08:05:23;;;;;;;34.60;32.47;;;19.60;55.50;;;;;;4160662;28;20590;-73
2022/08/08 08:07:25;;;;;;;2.90;2.70;;;19.70;55.10;;;;;;4160633;28;20180;-73
2022/08/08 08:09:36;;;;;;;2.60;2.40;;;19.80;54.60;;;;;;4161757;28;20192;-73
2022/08/08 08:11:44;;;;;;;9.50;9.00;;;20.00;54.10;;;;;;4160171;28;20231;-73
2022/08/08 08:14:05;;;;;;;8.37;7.67;;;20.20;53.80;;;;;;4160699;28;20157;-73
2022/08/08 08:16:13;;;;;;;3.90;3.30;;;20.20;53.40;;;;;;4163615;28;20209;-73
2022/08/08 08:18:16;;;;;;;2.77;2.43;;;20.30;53.70;;;;;;4180390;28;20183;-73
2022/08/08 08:20:18;;;;;;;7.43;6.93;;;20.40;54.60;;;;;;4179856;28;20203;-73
2022/08/08 08:22:18;;;;;;;5.17;4.83;;;20.40;52.80;;;;;;4163801;28;20228;-73
2022/08/08 08:24:19;;;;;;;2.83;2.63;;;20.30;52.10;;;;;;4180303;28;20691;-73
2022/08/08 08:26:20;;;;;;;2.10;2.00;;;20.50;52.00;;;;;;4164865;28;20563;-73
2022/08/08 08:28:21;;;;;;;7.27;6.73;;;20.60;51.20;;;;;;4163645;28;20185;-73
2022/08/08 08:30:21;;;;;;;5.77;5.27;;;20.50;50.50;;;;;;4164083;28;20687;-73
2022/08/08 08:32:22;;;;;;;5.93;5.57;;;20.40;51.50;;;;;;4165097;28;20204;-73
2022/08/08 08:34:23;;;;;;;10.50;9.87;;;20.40;51.20;;;;;;4163572;28;20181;-73
2022/08/08 08:36:24;;;;;;;14.53;13.50;;;20.60;49.60;;;;;;4164592;28;20216;-73
2022/08/08 08:38:25;;;;;;;3.83;3.43;;;20.70;49.20;;;;;;4163523;28;20181;-72
2022/08/08 08:40:27;;;;;;;4.67;4.37;;;20.80;48.40;;;;;;4162845;28;20181;-74
2022/08/08 08:42:30;;;;;;;7.17;6.73;;;20.90;46.90;;;;;;4163451;28;20268;-72
2022/08/08 08:44:30;;;;;;;2.50;2.27;;;21.10;46.60;;;;;;4163367;28;20707;-73
2022/08/08 08:46:34;;;;;;;3.57;2.47;;;21.10;47.20;;;;;;4163217;28;20185;-72
2022/08/08 08:48:35;;;;;;;2.80;2.60;;;20.90;47.20;;;;;;4163212;28;20191;-72
2022/08/08 08:50:37;;;;;;;18.20;17.17;;;21.20;47.60;;;;;;4162539;28;20700;-73
2022/08/08 08:52:42;;;;;;;81.20;75.70;;;21.40;44.60;;;;;;4167643;28;20219;-73
2022/08/08 08:54:46;;;;;;;2.53;2.33;;;21.30;44.30;;;;;;4179664;28;20172;-73
2022/08/08 08:56:47;;;;;;;7.00;6.60;;;21.30;45.30;;;;;;4179239;28;20266;-73
2022/08/08 08:58:50;;;;;;;2.00;1.90;;;21.40;44.40;;;;;;4179523;28;20225;-73
2022/08/08 09:00:51;;;;;;;2.97;2.47;;;21.50;44.40;;;;;;4178705;28;20637;-73
2022/08/08 09:02:52;;;;;;;3.37;3.17;;;21.50;43.90;;;;;;4179693;28;20200;-72
2022/08/08 09:04:58;;;;;;;228.53;120.70;;;21.70;43.50;;;;;;4179383;28;20185;-72
2022/08/08 09:07:02;;;;;;;2.90;2.40;;;21.80;43.90;;;;;;4179696;28;20184;-72
2022/08/08 09:09:13;;;;;;;8.73;8.20;;;21.80;42.20;;;;;;4162770;28;20196;-73
2022/08/08 09:11:15;;;;;;;3.77;2.60;;;22.00;41.90;;;;;;4162112;28;20187;-73
2022/08/08 09:13:17;;;;;;;3.13;2.80;;;22.10;42.10;;;;;;4179600;28;20568;-72
2022/08/08 09:15:17;;;;;;;20.43;19.20;;;22.10;42.00;;;;;;4195725;28;20737;-73
2022/08/08 09:17:19;;;;;;;19.93;18.70;;;22.40;40.80;;;;;;4179300;28;20218;-72
2022/08/08 09:19:20;;;;;;;4.53;2.20;;;22.40;40.90;;;;;;4162646;28;20212;-72
2022/08/08 09:21:22;;;;;;;2.40;2.30;;;22.10;41.60;;;;;;4178502;28;20176;-72
2022/08/08 09:23:24;;;;;;;6.87;6.47;;;22.00;42.40;;;;;;4179056;28;20180;-72
2022/08/08 09:25:25;;;;;;;3.80;3.50;;;22.20;42.40;;;;;;4178604;28;20185;-72
2022/08/08 09:27:26;;;;;;;2.80;2.60;;;22.30;41.80;;;;;;4179083;28;20176;-72
2022/08/08 09:29:31;;;;;;;2.97;2.00;;;22.10;41.90;;;;;;4180213;28;20184;-72
2022/08/08 09:31:58;;;;;;;19.40;18.17;;;22.50;42.10;;;;;;4179697;28;20200;-72
2022/08/08 09:34:01;;;;;;;4.07;3.20;;;22.70;40.90;;;;;;4180277;28;20184;-72
2022/08/08 09:36:02;;;;;;;5.07;4.77;;;22.70;41.40;;;;;;4178727;28;20680;-72
2022/08/08 09:38:03;;;;;;;7.10;6.43;;;22.50;41.10;;;;;;4179066;28;20223;-72
2022/08/08 09:40:13;;;;;;;10.67;10.03;;;22.20;42.40;;;;;;4178957;28;20263;-72
2022/08/08 09:42:16;;;;;;;20.30;19.20;;;22.80;41.60;;;;;;4178946;28;20298;-72
2022/08/08 09:44:48;;;;;;;2.87;2.50;;;23.20;39.70;;;;;;4179197;28;20181;-72
2022/08/08 09:46:50;;;;;;;3.43;2.93;;;22.90;40.20;;;;;;4180381;28;20224;-72
2022/08/08 09:48:52;;;;;;;19.67;18.53;;;23.40;40.10;;;;;;4179307;28;20576;-72
2022/08/08 09:50:54;;;;;;;2.90;1.87;;;23.60;37.70;;;;;;4178902;28;20691;-72
2022/08/08 09:52:55;;;;;;;11.50;10.60;;;23.70;37.60;;;;;;4180800;28;20216;-72
2022/08/08 09:54:56;;;;;;;3.47;3.17;;;23.70;37.60;;;;;;4180747;28;20275;-73
2022/08/08 09:57:02;;;;;;;3.10;2.90;;;23.80;37.90;;;;;;4162764;28;20209;-72
2022/08/08 09:59:06;;;;;;;2.37;2.27;;;23.90;37.80;;;;;;4180586;28;20272;-72
2022/08/08 10:01:08;;;;;;;13.63;12.73;;;24.60;36.80;;;;;;4180007;28;20297;-72
2022/08/08 10:03:15;;;;;;;2.33;1.73;;;24.60;35.30;;;;;;4178939;28;20188;-72
2022/08/08 10:05:19;;;;;;;3.40;3.20;;;24.70;35.40;;;;;;4179316;28;20852;-72
2022/08/08 10:07:19;;;;;;;7.43;6.77;;;24.60;35.70;;;;;;4162744;28;20224;-72
2022/08/08 10:09:34;;;;;;;6.40;6.07;;;25.10;34.90;;;;;;4180175;28;20702;-72
2022/08/08 10:11:37;;;;;;;4.60;4.40;;;24.90;33.20;;;;;;4178804;28;20207;-72
2022/08/08 10:13:58;;;;;;;3.93;2.27;;;25.40;32.40;;;;;;4180337;28;20562;-72
2022/08/08 10:16:00;;;;;;;4.20;3.87;;;25.50;31.60;;;;;;4179069;28;20196;-72
2022/08/08 10:18:01;;;;;;;2.07;1.90;;;25.60;31.10;;;;;;4178807;28;20230;-72
2022/08/08 10:20:02;;;;;;;1.80;1.70;;;25.60;30.90;;;;;;4178783;28;20200;-73
2022/08/08 10:22:05;;;;;;;2.43;1.77;;;25.50;29.90;;;;;;4179322;28;20208;-72
2022/08/08 10:24:11;;;;;;;7.53;7.13;;;25.30;29.60;;;;;;4178751;28;20699;-72
2022/08/08 10:26:19;;;;;;;4.40;2.10;;;25.00;30.60;;;;;;4179952;28;20226;-72
2022/08/08 10:28:21;;;;;;;3.37;3.17;;;25.60;31.40;;;;;;4180106;28;20176;-73
2022/08/08 10:30:24;;;;;;;5.57;5.17;;;26.20;30.00;;;;;;4180053;28;20266;-72
2022/08/08 10:32:31;;;;;;;3.07;2.70;;;26.30;29.90;;;;;;4179583;28;20211;-72
2022/08/08 10:34:37;;;;;;;2.97;2.77;;;26.30;29.10;;;;;;4178652;28;20165;-72
2022/08/08 10:36:41;;;;;;;6.87;6.47;;;26.10;29.40;;;;;;4178306;28;20200;-72
2022/08/08 10:38:42;;;;;;;6.60;6.20;;;27.20;28.60;;;;;;4178279;28;20184;-72
2022/08/08 10:40:49;;;;;;;14.87;14.03;;;27.90;27.50;;;;;;4179251;28;20188;-72
2022/08/08 10:43:03;;;;;;;50.90;47.90;;;28.80;25.70;;;;;;4178654;28;20246;-72
2022/08/08 10:45:06;;;;;;;7.37;6.97;;;27.90;26.60;;;;;;4178526;28;20180;-72
2022/08/08 10:47:25;;;;;;;4.60;4.30;;;28.10;26.50;;;;;;4179324;28;20188;-72
2022/08/08 10:49:26;;;;;;;3.85;3.65;;;29.00;25.60;;;;;;4179645;28;20180;-72
2022/08/08 10:51:34;;;;;;;4.10;3.90;;;29.70;25.00;;;;;;4177626;28;20204;-71
2022/08/08 10:53:37;;;;;;;10.23;9.63;;;29.30;23.50;;;;;;4179588;28;20179;-72
2022/08/08 10:55:41;;;;;;;2.03;1.92;;;28.50;24.60;;;;;;4174808;28;20185;-72
2022/08/08 10:57:48;;;;;;;3.45;3.15;;;28.10;24.70;;;;;;4178124;28;20191;-71
2022/08/08 10:59:54;;;;;;;2.10;1.75;;;28.00;25.20;;;;;;4178038;28;20225;-71
2022/08/08 11:01:55;;;;;;;4.93;4.63;;;27.40;26.00;;;;;;4178806;28;20203;-71
2022/08/08 11:03:59;;;;;;;1.77;1.67;;;27.80;25.00;;;;;;4179687;28;20180;-71
2022/08/08 11:06:00;;;;;;;2.65;2.55;;;28.50;24.70;;;;;;4179384;28;20216;-71
2022/08/08 11:08:01;;;;;;;1.92;1.80;;;29.60;23.50;;;;;;4179197;28;20208;-71
2022/08/08 11:10:11;;;;;;;106.15;97.47;;;30.30;22.50;;;;;;4179451;28;20267;-71
2022/08/08 11:12:12;;;;;;;2.35;2.20;;;29.20;24.20;;;;;;4177473;28;20215;-71
2022/08/08 11:14:13;;;;;;;7.20;6.70;;;28.30;24.70;;;;;;4178065;28;20742;-71
2022/08/08 11:16:22;;;;;;;4.32;4.13;;;29.40;23.50;;;;;;4177576;28;20207;-71